sensor_id;sensor_type;location;lat;lon;timestamp;P1;durP1;ratioP1;P2;durP2;ratioP2
62106;SDS011;48087;32.600;-97.100;2023-03-02T00:15:54;21;;;18;;
62106;SDS011;48087;32.600;-97.100;2023-03-02T00:38:13;23;;;20;;
62106;SDS011;48087;32.600;-97.100;2023-03-02T01:00:33;20;;;17;;
62106;SDS011;48087;32.600;-97.100;2023-03-02T01:22:52;25;;;22;;
62106;SDS011;48087;32.600;-97.100;2023-03-02T01:45:38;14;;;14;;
62106;SDS011;48087;32.600;-97.100;2023-03-02T02:07:29;11;;;11;;
62106;SDS011;48087;32.600;-97.100;2023-03-02T02:29:48;15;;;14;;
62106;SDS011;48087;32.600;-97.100;2023-03-02T02:52:06;18;;;16;;
62106;SDS011;48087;32.600;-97.100;2023-03-02T03:14:25;19;;;17;;
62106;SDS011;48087;32.600;-97.100;2023-03-02T03:59:03;11;;;11;;
62106;SDS011;48087;32.600;-97.100;2023-03-02T04:21:18;15;;;14;;
62106;SDS011;48087;32.600;-97.100;2023-03-02T04:43:36;20;;;17;;
62106;SDS011;48087;32.600;-97.100;2023-03-02T05:05:54;24;;;21;;
62106;SDS011;48087;32.600;-97.100;2023-03-02T05:28:12;18;;;16;;
62106;SDS011;48087;32.600;-97.100;2023-03-02T05:50:30;21;;;18;;
62106;SDS011;48087;32.600;-97.100;2023-03-02T06:12:48;18;;;16;;
62106;SDS011;48087;32.600;-97.100;2023-03-02T06:35:06;13;;;13;;
62106;SDS011;48087;32.600;-97.100;2023-03-02T06:57:24;20;;;17;;
62106;SDS011;48087;32.600;-97.100;2023-03-02T07:19:42;13;;;13;;
62106;SDS011;48087;32.600;-97.100;2023-03-02T07:42:00;23;;;20;;
62106;SDS011;48087;32.600;-97.100;2023-03-02T08:04:17;11;;;11;;
62106;SDS011;48087;32.600;-97.100;2023-03-02T08:26:35;22;;;19;;
62106;SDS011;48087;32.600;-97.100;2023-03-02T08:48:53;13;;;13;;
62106;SDS011;48087;32.600;-97.100;2023-03-02T09:11:10;14;;;14;;
62106;SDS011;48087;32.600;-97.100;2023-03-02T09:33:28;13;;;13;;
62106;SDS011;48087;32.600;-97.100;2023-03-02T09:55:46;18;;;16;;
62106;SDS011;48087;32.600;-97.100;2023-03-02T10:18:08;20;;;17;;
62106;SDS011;48087;32.600;-97.100;2023-03-02T10:40:27;13;;;13;;
62106;SDS011;48087;32.600;-97.100;2023-03-02T11:02:47;23;;;20;;
62106;SDS011;48087;32.600;-97.100;2023-03-02T11:47:15;20;;;17;;
62106;SDS011;48087;32.600;-97.100;2023-03-02T12:09:33;18;;;16;;
62106;SDS011;48087;32.600;-97.100;2023-03-02T12:31:50;24;;;21;;
62106;SDS011;48087;32.600;-97.100;2023-03-02T13:38:44;28;;;24;;
62106;SDS011;48087;32.600;-97.100;2023-03-02T14:00:59;26;;;23;;
62106;SDS011;48087;32.600;-97.100;2023-03-02T14:23:18;34;;;29;;
62106;SDS011;48087;32.600;-97.100;2023-03-02T14:45:36;36;;;31;;
62106;SDS011;48087;32.600;-97.100;2023-03-02T15:07:55;64;;;55;;
62106;SDS011;48087;32.600;-97.100;2023-03-02T15:09:07;67;;;58;;
62106;SDS011;48087;32.600;-97.100;2023-03-02T15:31:24;38;;;35;;
62106;SDS011;48087;32.600;-97.100;2023-03-02T16:16:07;20;;;17;;
62106;SDS011;48087;32.600;-97.100;2023-03-02T16:38:29;19;;;17;;
62106;SDS011;48087;32.600;-97.100;2023-03-02T17:00:52;22;;;19;;
62106;SDS011;48087;32.600;-97.100;2023-03-02T17:23:15;13;;;13;;
62106;SDS011;48087;32.600;-97.100;2023-03-02T17:45:39;13;;;13;;
62106;SDS011;48087;32.600;-97.100;2023-03-02T18:08:03;19;;;17;;
62106;SDS011;48087;32.600;-97.100;2023-03-02T18:30:28;55;;;48;;
62106;SDS011;48087;32.600;-97.100;2023-03-02T18:52:53;51;;;45;;
62106;SDS011;48087;32.600;-97.100;2023-03-02T19:37:46;42;;;40;;
62106;SDS011;48087;32.600;-97.100;2023-03-02T20:00:13;51;;;45;;
62106;SDS011;48087;32.600;-97.100;2023-03-02T20:22:37;57;;;50;;
62106;SDS011;48087;32.600;-97.100;2023-03-02T20:45:03;42;;;40;;
62106;SDS011;48087;32.600;-97.100;2023-03-02T21:07:28;33;;;28;;
62106;SDS011;48087;32.600;-97.100;2023-03-02T21:29:52;35;;;30;;
62106;SDS011;48087;32.600;-97.100;2023-03-02T21:52:17;33;;;28;;
62106;SDS011;48087;32.600;-97.100;2023-03-02T22:14:41;34;;;29;;
62106;SDS011;48087;32.600;-97.100;2023-03-02T22:37:08;27;;;23;;
62106;SDS011;48087;32.600;-97.100;2023-03-02T22:59:33;30;;;26;;
62106;SDS011;48087;32.600;-97.100;2023-03-02T23:21:55;38;;;35;;
62106;SDS011;48087;32.600;-97.100;2023-03-02T23:44:18;42;;;40;;
